»·PEaware :: N1526T KICT-KEEO

N1526T :: KICT-KEEO

FLIGHT INFORMATION

Flight Status: Arrived
Operator: Privately registered:
United States
More flights under this callsign
Pilot: Tyler J. (19619)
Aircraft: SOCATA TBM-900
(TBM9)
More flights by this aircraft type
Origin: KICT Wichita Mid-Continent
United States
Destination: KEEO Meeker
United States
More flights between these airports :: More routes between these airports
Route: ICT J182 GLD J80 FQF J116 EKR
File this flight plan on PilotEdge
Remarks:
Altitude:
(Current/Filed)
28,000ft
Speed:
(Current/Filed)
320kts
Departed: 18-Sep-20 11:08 AM
Arrived: 18-Sep-20 12:58 PM
Distance/Time
Traveled:
509nm/1:49
Distance/Time
To Go:
Arrived

Flight Plot

Page will automatically refresh every two minutes.

Flight plan parsing failed; only flown route is shown


Map Options




Map Legend


Flown Route
Filed Route
Departure Airport
Arrival Airport
Navaid (VOR, NDB)
Fix

Horizontal Profiles

Position Reports

Time Latitude Longitude Heading Altitude Ground
Speed
18-Sep-20 10:38 37.656092 -97.424511 21 1326ft 0kts
18-Sep-20 10:39 37.656092 -97.424511 21 1326ft 0kts
18-Sep-20 10:40 37.656092 -97.424511 21 1326ft 0kts
18-Sep-20 10:41 37.656092 -97.424511 21 1326ft 0kts
18-Sep-20 10:42 37.656092 -97.424511 21 1326ft 0kts
18-Sep-20 10:43 37.656092 -97.424511 21 1326ft 0kts
18-Sep-20 10:44 37.656092 -97.424511 21 1326ft 0kts
18-Sep-20 10:45 37.656092 -97.424511 21 1326ft 0kts
18-Sep-20 10:46 37.656092 -97.424511 21 1326ft 0kts
18-Sep-20 10:48 37.656092 -97.424511 21 1326ft 0kts
18-Sep-20 10:49 37.656092 -97.424511 21 1326ft 0kts
18-Sep-20 10:50 37.656092 -97.424511 21 1326ft 0kts
18-Sep-20 10:51 37.656092 -97.424511 21 1326ft 0kts
18-Sep-20 10:52 37.656092 -97.424511 21 1326ft 0kts
18-Sep-20 10:53 37.656092 -97.424511 21 1326ft 0kts
18-Sep-20 10:54 37.656092 -97.424511 21 1326ft 0kts
18-Sep-20 10:55 37.656092 -97.424511 21 1326ft 0kts
18-Sep-20 10:56 37.656092 -97.424511 21 1326ft 0kts
18-Sep-20 10:57 37.656092 -97.424511 21 1326ft 0kts
18-Sep-20 10:58 37.656092 -97.424511 21 1326ft 0kts
18-Sep-20 10:59 37.656092 -97.424511 21 1326ft 0kts
18-Sep-20 11:00 37.656092 -97.424511 21 1326ft 0kts
18-Sep-20 11:01 37.656092 -97.424511 21 1326ft 0kts
18-Sep-20 11:01 37.656092 -97.424511 21 1326ft 0kts
18-Sep-20 11:03 37.656092 -97.424511 21 1326ft 0kts
18-Sep-20 11:04 37.656138 -97.424176 116 1326ft 0kts
18-Sep-20 11:05 37.654778 -97.423511 200 1326ft 16kts
18-Sep-20 11:05 37.651685 -97.425121 197 1322ft 22kts
18-Sep-20 11:07 37.648980 -97.424769 115 1320ft 0kts
18-Sep-20 11:08 37.652054 -97.422058 17 1320ft 80kts
18-Sep-20 11:08 37.679433 -97.407686 24 2367ft 163kts
18-Sep-20 11:09 37.728192 -97.396800 317 3887ft 211kts
18-Sep-20 11:10 37.739334 -97.471649 273 5401ft 227kts
18-Sep-20 11:11 37.743654 -97.552562 273 6903ft 234kts
18-Sep-20 11:12 37.764846 -97.628809 302 8405ft 236kts
18-Sep-20 11:13 37.795986 -97.702475 299 9781ft 242kts
18-Sep-20 11:14 37.827383 -97.776793 299 11222ft 237kts
18-Sep-20 11:15 37.858454 -97.850220 299 12728ft 235kts
18-Sep-20 11:16 37.889173 -97.922919 299 14230ft 233kts
18-Sep-20 11:17 37.919956 -97.995891 299 15729ft 238kts
18-Sep-20 11:18 37.951379 -98.070601 299 17226ft 244kts
18-Sep-20 11:19 37.983773 -98.147765 298 18733ft 251kts
18-Sep-20 11:20 38.016698 -98.226422 298 20237ft 253kts
18-Sep-20 11:21 38.049843 -98.305759 298 21738ft 257kts
18-Sep-20 11:22 38.083417 -98.386371 298 23242ft 259kts
18-Sep-20 11:23 38.117218 -98.467708 298 24741ft 262kts
18-Sep-20 11:24 38.151247 -98.549828 298 26245ft 262kts
18-Sep-20 11:25 38.185196 -98.631947 298 27747ft 263kts
18-Sep-20 11:26 38.221084 -98.718995 298 28191ft 294kts
18-Sep-20 11:27 38.260248 -98.814291 297 28190ft 310kts
18-Sep-20 11:28 38.300483 -98.912484 297 28184ft 314kts
18-Sep-20 11:29 38.340792 -99.011162 297 28180ft 314kts
18-Sep-20 11:30 38.381133 -99.110233 297 28172ft 314kts
18-Sep-20 11:31 38.421320 -99.209239 297 28167ft 315kts
18-Sep-20 11:32 38.461583 -99.308755 297 28160ft 315kts
18-Sep-20 11:33 38.501710 -99.408251 297 28154ft 315kts
18-Sep-20 11:34 38.541775 -99.507914 297 28147ft 315kts
18-Sep-20 11:35 38.581723 -99.607602 297 28141ft 315kts
18-Sep-20 11:36 38.621579 -99.707383 297 28135ft 315kts
18-Sep-20 11:37 38.661293 -99.807139 297 28131ft 315kts
18-Sep-20 11:38 38.700949 -99.907076 296 28124ft 315kts
18-Sep-20 11:39 38.740625 -100.007377 296 28118ft 315kts
18-Sep-20 11:40 38.779984 -100.107211 296 28115ft 314kts
18-Sep-20 11:41 38.819479 -100.207712 296 28108ft 314kts
18-Sep-20 11:42 38.858756 -100.307996 296 28103ft 314kts
18-Sep-20 11:43 38.897932 -100.408342 296 28098ft 314kts
18-Sep-20 11:44 38.937043 -100.508861 296 28094ft 314kts
18-Sep-20 11:45 38.976129 -100.609643 296 28087ft 314kts
18-Sep-20 11:46 39.015006 -100.710224 296 28081ft 314kts
18-Sep-20 11:47 39.053836 -100.811010 296 28075ft 314kts
18-Sep-20 11:48 39.092552 -100.911836 296 28069ft 314kts
18-Sep-20 11:49 39.131128 -101.012657 295 28064ft 314kts
18-Sep-20 11:50 39.169639 -101.113624 295 28059ft 313kts
18-Sep-20 11:51 39.208028 -101.214623 295 28054ft 313kts
18-Sep-20 11:52 39.246305 -101.315656 295 28049ft 313kts
18-Sep-20 11:53 39.284550 -101.416939 295 28045ft 313kts
18-Sep-20 11:54 39.322643 -101.518171 295 28041ft 313kts
18-Sep-20 11:55 39.360427 -101.618925 295 28038ft 312kts
18-Sep-20 11:56 39.391812 -101.723385 286 28036ft 311kts
18-Sep-20 11:57 39.404630 -101.834139 280 28036ft 311kts
18-Sep-20 11:58 39.417229 -101.945051 279 28036ft 311kts
18-Sep-20 11:59 39.429623 -102.055745 277 28058ft 309kts
18-Sep-20 12:00 39.441948 -102.165982 278 28042ft 310kts
18-Sep-20 12:01 39.454278 -102.276749 278 28038ft 310kts
18-Sep-20 12:02 39.466512 -102.387497 278 28038ft 310kts
18-Sep-20 12:03 39.478606 -102.497837 278 28040ft 310kts
18-Sep-20 12:04 39.490617 -102.608519 278 28040ft 310kts
18-Sep-20 12:05 39.502511 -102.719052 278 28040ft 310kts
18-Sep-20 12:06 39.514254 -102.829243 278 28041ft 310kts
18-Sep-20 12:07 39.525955 -102.940013 278 28041ft 309kts
18-Sep-20 12:08 39.537525 -103.050590 278 28041ft 309kts
18-Sep-20 12:09 39.548977 -103.161117 278 28040ft 309kts
18-Sep-20 12:10 39.560297 -103.271355 278 28039ft 309kts
18-Sep-20 12:11 39.571524 -103.381749 278 28038ft 309kts
18-Sep-20 12:12 39.582644 -103.492180 278 28037ft 308kts
18-Sep-20 12:13 39.593659 -103.602635 277 28035ft 308kts
18-Sep-20 12:14 39.604564 -103.713047 277 28034ft 308kts
18-Sep-20 12:15 39.615360 -103.823472 277 28028ft 308kts
18-Sep-20 12:16 39.626021 -103.933584 277 28025ft 308kts
18-Sep-20 12:17 39.636343 -104.041325 277 28023ft 308kts
18-Sep-20 12:18 39.646797 -104.151457 277 28017ft 307kts
18-Sep-20 12:19 39.657137 -104.261616 277 28015ft 307kts
18-Sep-20 12:20 39.667377 -104.371789 277 28013ft 307kts
18-Sep-20 12:21 39.677524 -104.482145 276 28007ft 307kts
18-Sep-20 12:22 39.686416 -104.592746 274 28007ft 308kts
18-Sep-20 12:23 39.700329 -104.701738 277 28006ft 306kts
18-Sep-20 12:24 39.714282 -104.810573 278 28007ft 305kts
18-Sep-20 12:25 39.728133 -104.919109 279 28008ft 305kts
18-Sep-20 12:26 39.741837 -105.027565 278 28019ft 302kts
18-Sep-20 12:27 39.755194 -105.134309 278 28037ft 297kts
18-Sep-20 12:28 39.768244 -105.239605 278 28054ft 294kts
18-Sep-20 12:29 39.781221 -105.345124 278 28075ft 296kts
18-Sep-20 12:30 39.794161 -105.451185 278 28100ft 296kts
18-Sep-20 12:31 39.806874 -105.556090 278 28097ft 292kts
18-Sep-20 12:32 39.819533 -105.661395 278 27519ft 303kts
18-Sep-20 12:33 39.832883 -105.773553 278 26448ft 319kts
18-Sep-20 12:34 39.846402 -105.887929 278 25334ft 319kts
18-Sep-20 12:35 39.859639 -106.001015 278 24262ft 313kts
18-Sep-20 12:36 39.872615 -106.112763 278 23022ft 309kts
18-Sep-20 12:37 39.885206 -106.222004 278 21668ft 302kts
18-Sep-20 12:38 39.897406 -106.328979 278 20420ft 296kts
18-Sep-20 12:40 39.909539 -106.436151 277 19103ft 298kts
18-Sep-20 12:41 39.921517 -106.542860 277 17815ft 297kts
18-Sep-20 12:42 39.933341 -106.649066 277 16528ft 294kts
18-Sep-20 12:43 39.944878 -106.753719 277 15235ft 289kts
18-Sep-20 12:44 39.955986 -106.855193 277 14991ft 277kts
18-Sep-20 12:45 39.966742 -106.954278 277 14984ft 274kts
18-Sep-20 12:46 39.977321 -107.052630 277 14982ft 274kts
18-Sep-20 12:47 39.987824 -107.151000 277 14995ft 273kts
18-Sep-20 12:48 39.998238 -107.249343 277 14993ft 273kts
18-Sep-20 12:49 40.008892 -107.348764 279 14537ft 282kts
18-Sep-20 12:50 40.020981 -107.447574 278 14429ft 270kts
18-Sep-20 12:51 40.032569 -107.545655 278 13747ft 282kts
18-Sep-20 12:52 40.043247 -107.646703 276 12723ft 282kts
18-Sep-20 12:53 40.053017 -107.738736 278 10376ft 222kts
18-Sep-20 12:54 40.052923 -107.816564 265 8410ft 206kts
18-Sep-20 12:55 40.026356 -107.863610 222 7782ft 141kts
18-Sep-20 12:56 40.023135 -107.896700 320 7005ft 109kts
18-Sep-20 12:57 40.045236 -107.889815 36 6376ft 72kts
18-Sep-20 12:57 40.048235 -107.886433 218 6386ft 34kts
18-Sep-20 12:59 40.043286 -107.889555 156 6367ft 0kts
18-Sep-20 13:00 40.043286 -107.889555 156 6367ft 0kts
18-Sep-20 13:00 40.043286 -107.889555 156 6367ft 0kts
18-Sep-20 13:01 40.043286 -107.889555 156 6367ft 0kts
18-Sep-20 13:02 40.043286 -107.889555 156 6367ft 0kts

Navigation Log

Ident Type
Flight plan parsing failed, navigation log unavailable